Time;durP1;ratioP1;P1;durP2;ratioP2;P2;SDS_P1;SDS_P2;PMS_P1;PMS_P2;Temp;Humidity;BMP_temperature;BMP_pressure;BME280_temperature;BME280_humidity;BME280_pressure;Samples;Min_cycle;Max_cycle;Signal;HPM_P1;HPM_P2
2022/01/31 00:03:37;;;;;;;;;;;16.20;34.60;;;;;;8299682;28;19922;-51
2022/01/31 00:07:38;;;;;;;;;;;16.20;34.60;;;;;;8298690;28;20049;-51
2022/01/31 00:11:42;;;;;;;;;;;16.20;34.50;;;;;;8299162;28;19917;-54
2022/01/31 00:15:46;;;;;;;;;;;16.20;34.50;;;;;;8299014;28;19931;-53
2022/01/31 00:19:47;;;;;;;;;;;16.20;34.50;;;;;;8280774;28;20354;-51
2022/01/31 00:23:47;;;;;;;;;;;16.20;34.50;;;;;;8298791;28;19924;-52
2022/01/31 00:27:48;;;;;;;;;;;16.20;34.60;;;;;;8298461;28;19932;-51
2022/01/31 00:31:48;;;;;;;;;;;16.20;34.50;;;;;;8297882;28;19918;-52
2022/01/31 00:35:49;;;;;;;;;;;16.20;34.50;;;;;;8298624;28;20367;-52
2022/01/31 00:39:49;;;;;;;;;;;16.10;34.50;;;;;;8298730;28;19921;-49
2022/01/31 00:44:15;;;;;;;;;;;16.20;34.50;;;;;;8297711;28;19917;-51
2022/01/31 00:48:19;;;;;;;;;;;16.10;34.40;;;;;;8298078;28;19934;-52
2022/01/31 00:52:19;;;;;;;;;;;16.10;34.50;;;;;;8298200;28;19944;-49
2022/01/31 00:56:20;;;;;;;;;;;16.10;34.50;;;;;;8298078;28;20391;-49
2022/01/31 01:00:20;;;;;;;;;;;16.10;34.50;;;;;;8297773;28;19959;-53
2022/01/31 01:04:21;;;;;;;;;;;16.10;34.50;;;;;;8297554;28;19928;-55
2022/01/31 01:08:21;;;;;;;;;;;16.10;34.50;;;;;;8297771;28;19929;-50
2022/01/31 01:12:22;;;;;;;;;;;16.10;34.60;;;;;;8297729;28;19924;-52
2022/01/31 01:16:22;;;;;;;;;;;16.10;34.60;;;;;;8296949;28;20433;-53
2022/01/31 01:20:24;;;;;;;;;;;16.10;34.60;;;;;;8297782;28;20004;-52
2022/01/31 01:24:24;;;;;;;;;;;16.10;34.60;;;;;;8297600;28;19923;-51
2022/01/31 01:28:26;;;;;;;;;;;16.10;34.60;;;;;;8296533;28;19925;-51
2022/01/31 01:32:30;;;;;;;;;;;16.10;34.60;;;;;;8303173;28;20310;-51
2022/01/31 01:36:32;;;;;;;;;;;16.10;34.70;;;;;;8304032;28;19933;-50
2022/01/31 01:40:33;;;;;;;;;;;16.10;34.70;;;;;;8303638;28;20025;-55
2022/01/31 01:44:37;;;;;;;;;;;16.10;34.70;;;;;;8304089;28;19963;-54
2022/01/31 01:48:38;;;;;;;;;;;16.00;34.70;;;;;;8303458;28;19929;-51
2022/01/31 01:52:38;;;;;;;;;;;16.00;34.70;;;;;;8302696;28;19929;-51
2022/01/31 01:56:39;;;;;;;;;;;16.00;34.70;;;;;;8303448;28;19963;-51
2022/01/31 02:04:59;;;;;;;;;;;16.00;34.60;;;;;;8303220;28;19975;-54
2022/01/31 02:09:01;;;;;;;;;;;15.90;34.60;;;;;;8301996;28;19925;-54
2022/01/31 02:13:05;;;;;;;;;;;16.00;34.60;;;;;;8302357;28;19914;-53
2022/01/31 02:17:06;;;;;;;;;;;16.00;34.70;;;;;;8302872;28;19922;-53
2022/01/31 02:21:07;;;;;;;;;;;16.00;34.60;;;;;;8302579;28;20001;-49
2022/01/31 02:25:08;;;;;;;;;;;16.00;34.70;;;;;;8302193;28;20011;-52
2022/01/31 02:29:11;;;;;;;;;;;16.00;34.70;;;;;;8302373;28;19956;-51
2022/01/31 02:33:11;;;;;;;;;;;15.90;34.60;;;;;;8302049;28;19956;-50
2022/01/31 02:37:12;;;;;;;;;;;16.00;34.70;;;;;;8301563;28;19913;-53
2022/01/31 02:41:12;;;;;;;;;;;16.00;34.70;;;;;;8300748;28;19914;-51
2022/01/31 02:45:13;;;;;;;;;;;16.00;34.60;;;;;;8301941;28;20370;-53
2022/01/31 02:49:15;;;;;;;;;;;16.00;34.50;;;;;;8301093;28;19945;-53
2022/01/31 02:53:26;;;;;;;;;;;16.00;34.50;;;;;;8301448;28;19922;-53
2022/01/31 02:57:27;;;;;;;;;;;16.00;34.50;;;;;;8301420;28;19921;-51
2022/01/31 03:01:27;;;;;;;;;;;16.10;34.50;;;;;;8300864;28;19922;-53
2022/01/31 03:05:28;;;;;;;;;;;16.10;34.50;;;;;;8301205;28;19925;-53
2022/01/31 03:09:28;;;;;;;;;;;16.00;34.50;;;;;;8301055;28;19948;-50
2022/01/31 03:13:28;;;;;;;;;;;16.10;34.50;;;;;;8300402;28;19917;-52
2022/01/31 03:17:29;;;;;;;;;;;16.00;34.50;;;;;;8300802;28;19949;-51
2022/01/31 03:21:29;;;;;;;;;;;16.00;34.50;;;;;;8300760;28;19917;-53
2022/01/31 03:25:33;;;;;;;;;;;16.00;34.50;;;;;;8299651;28;21508;-52
2022/01/31 03:29:34;;;;;;;;;;;16.00;34.50;;;;;;8300266;28;20012;-52
2022/01/31 03:33:34;;;;;;;;;;;16.00;34.50;;;;;;8300381;28;20396;-51
2022/01/31 03:37:35;;;;;;;;;;;16.00;34.50;;;;;;8300404;28;20302;-50
2022/01/31 03:41:35;;;;;;;;;;;16.00;34.50;;;;;;8300293;28;20323;-53
2022/01/31 03:45:36;;;;;;;;;;;16.00;34.50;;;;;;8300178;28;20074;-51
2022/01/31 03:49:36;;;;;;;;;;;16.00;34.50;;;;;;8299301;28;19925;-53
2022/01/31 03:53:37;;;;;;;;;;;15.90;34.50;;;;;;8299226;28;19968;-51
2022/01/31 03:57:38;;;;;;;;;;;15.90;34.50;;;;;;8299711;28;19917;-53
2022/01/31 04:01:38;;;;;;;;;;;15.90;34.50;;;;;;8299022;28;20430;-51
2022/01/31 04:05:39;;;;;;;;;;;15.90;34.50;;;;;;8299567;28;19922;-50
2022/01/31 04:09:39;;;;;;;;;;;15.90;34.50;;;;;;8299078;28;20019;-53
2022/01/31 04:13:39;;;;;;;;;;;15.90;34.60;;;;;;8298553;28;19988;-51
2022/01/31 04:17:40;;;;;;;;;;;15.90;34.60;;;;;;8299101;28;19913;-52
2022/01/31 04:21:41;;;;;;;;;;;15.80;34.60;;;;;;8299065;28;19917;-54
2022/01/31 04:29:51;;;;;;;;;;;15.90;34.60;;;;;;8303645;28;19945;-51
2022/01/31 04:33:51;;;;;;;;;;;15.90;34.60;;;;;;8298429;28;20275;-50
2022/01/31 04:37:52;;;;;;;;;;;16.00;34.60;;;;;;8297784;28;19917;-55
2022/01/31 04:41:52;;;;;;;;;;;16.00;34.60;;;;;;8298670;28;19913;-53
2022/01/31 04:45:56;;;;;;;;;;;16.00;34.60;;;;;;8298482;28;19944;-52
2022/01/31 04:49:56;;;;;;;;;;;16.00;34.50;;;;;;8330687;28;19929;-53
2022/01/31 04:53:56;;;;;;;;;;;16.00;34.50;;;;;;8330717;28;19917;-54
2022/01/31 04:57:57;;;;;;;;;;;16.10;34.60;;;;;;8322881;28;20305;-52
2022/01/31 05:01:58;;;;;;;;;;;16.10;34.50;;;;;;8329094;28;19920;-51
2022/01/31 05:05:59;;;;;;;;;;;16.10;34.60;;;;;;8329463;28;19921;-52
2022/01/31 05:09:59;;;;;;;;;;;16.10;34.50;;;;;;8330152;28;19967;-50
2022/01/31 05:14:00;;;;;;;;;;;16.10;34.50;;;;;;8312553;28;20262;-59
2022/01/31 05:18:00;;;;;;;;;;;16.10;34.50;;;;;;8327753;28;19913;-54
2022/01/31 05:22:01;;;;;;;;;;;16.10;34.50;;;;;;8329798;28;19917;-52
2022/01/31 05:26:01;;;;;;;;;;;16.10;34.50;;;;;;8330495;28;19917;-54
2022/01/31 05:30:03;;;;;;;;;;;16.10;34.50;;;;;;8329968;28;19929;-53
2022/01/31 05:34:05;;;;;;;;;;;16.10;34.50;;;;;;8329491;28;19919;-50
2022/01/31 05:38:06;;;;;;;;;;;16.10;34.50;;;;;;8329888;28;20259;-53
2022/01/31 05:42:06;;;;;;;;;;;16.10;34.60;;;;;;8319963;28;19917;-53
2022/01/31 05:46:07;;;;;;;;;;;16.00;34.50;;;;;;8329533;28;19917;-51
2022/01/31 05:50:08;;;;;;;;;;;16.10;34.60;;;;;;8329600;28;19929;-53
2022/01/31 05:54:08;;;;;;;;;;;16.10;34.60;;;;;;8329561;28;19920;-54
2022/01/31 05:58:09;;;;;;;;;;;16.00;34.60;;;;;;8328962;28;20000;-52
2022/01/31 06:02:09;;;;;;;;;;;16.00;34.60;;;;;;8330025;28;19913;-55
2022/01/31 06:06:10;;;;;;;;;;;16.00;34.60;;;;;;8329289;28;20385;-55
2022/01/31 06:10:10;;;;;;;;;;;16.00;34.60;;;;;;8328704;28;19921;-50
2022/01/31 06:14:11;;;;;;;;;;;16.00;34.60;;;;;;8329555;28;20370;-53
2022/01/31 06:18:11;;;;;;;;;;;16.00;34.60;;;;;;8333994;28;19975;-50
2022/01/31 06:22:12;;;;;;;;;;;16.00;34.60;;;;;;8335121;28;20301;-50
2022/01/31 06:26:12;;;;;;;;;;;16.00;34.70;;;;;;8335245;28;20019;-51
2022/01/31 06:30:13;;;;;;;;;;;16.00;34.70;;;;;;8333580;28;19926;-52
2022/01/31 06:34:14;;;;;;;;;;;16.00;34.70;;;;;;8334470;28;19920;-49
2022/01/31 06:38:14;;;;;;;;;;;16.00;34.80;;;;;;8335030;28;19941;-49
2022/01/31 06:42:15;;;;;;;;;;;16.00;34.70;;;;;;8335104;28;19917;-50
2022/01/31 06:46:15;;;;;;;;;;;16.00;34.70;;;;;;8334122;28;20139;-51
2022/01/31 06:50:16;;;;;;;;;;;15.90;34.70;;;;;;8334509;28;20397;-50
2022/01/31 06:54:16;;;;;;;;;;;15.90;34.70;;;;;;8334467;28;19971;-52
2022/01/31 06:58:16;;;;;;;;;;;15.90;34.70;;;;;;8333694;28;19917;-53
2022/01/31 07:02:17;;;;;;;;;;;16.00;34.80;;;;;;8334578;28;19913;-52
2022/01/31 07:06:17;;;;;;;;;;;15.90;34.70;;;;;;8334165;28;20004;-53
2022/01/31 07:10:18;;;;;;;;;;;15.90;34.80;;;;;;8333004;28;19925;-52
2022/01/31 07:14:31;;;;;;;;;;;15.90;34.70;;;;;;8333207;28;20362;-53
2022/01/31 07:18:33;;;;;;;;;;;15.90;34.80;;;;;;8333618;28;19919;-50
2022/01/31 07:22:37;;;;;;;;;;;15.90;34.80;;;;;;8333157;28;19972;-51
2022/01/31 07:26:37;;;;;;;;;;;15.90;34.70;;;;;;8332855;28;19944;-50
2022/01/31 07:30:39;;;;;;;;;;;15.90;34.80;;;;;;8332475;28;19925;-50
2022/01/31 07:34:40;;;;;;;;;;;15.90;34.80;;;;;;8332552;28;19960;-50
2022/01/31 07:38:41;;;;;;;;;;;15.90;34.80;;;;;;8333063;28;19920;-49
2022/01/31 07:42:41;;;;;;;;;;;15.90;34.80;;;;;;8332787;28;19999;-52
2022/01/31 07:46:42;;;;;;;;;;;15.90;34.80;;;;;;8332007;28;19921;-53
2022/01/31 07:50:42;;;;;;;;;;;15.90;34.80;;;;;;8332305;28;19917;-50
2022/01/31 07:54:44;;;;;;;;;;;15.90;34.80;;;;;;8332385;28;20018;-52
2022/01/31 07:58:44;;;;;;;;;;;15.90;34.80;;;;;;8331597;28;19964;-51
2022/01/31 08:02:45;;;;;;;;;;;15.90;34.80;;;;;;8331265;28;20289;-55
2022/01/31 08:06:45;;;;;;;;;;;15.90;34.80;;;;;;8331831;28;19983;-51
2022/01/31 08:10:46;;;;;;;;;;;15.90;34.90;;;;;;8331184;28;20328;-53
2022/01/31 08:14:48;;;;;;;;;;;15.90;34.90;;;;;;8331841;28;19917;-54
2022/01/31 08:18:48;;;;;;;;;;;15.90;34.90;;;;;;8331351;28;19917;-55
2022/01/31 08:22:49;;;;;;;;;;;15.90;35.00;;;;;;8331009;28;19913;-57
2022/01/31 08:26:49;;;;;;;;;;;15.90;35.00;;;;;;8331189;28;19960;-53
2022/01/31 08:30:57;;;;;;;;;;;15.90;35.00;;;;;;8331202;28;20293;-54
2022/01/31 08:39:20;;;;;;;;;;;15.90;35.00;;;;;;8311761;28;19928;-52
2022/01/31 08:43:21;;;;;;;;;;;15.90;35.00;;;;;;8324891;28;19939;-55
2022/01/31 08:47:22;;;;;;;;;;;15.90;35.00;;;;;;8328470;28;19944;-56
2022/01/31 08:51:22;;;;;;;;;;;15.90;35.00;;;;;;8308302;28;19954;-54
2022/01/31 08:55:23;;;;;;;;;;;15.90;35.00;;;;;;8318055;28;19971;-54
2022/01/31 08:59:25;;;;;;;;;;;15.90;35.10;;;;;;8317990;28;19924;-55
2022/01/31 09:03:54;;;;;;;;;;;15.90;35.10;;;;;;8329974;28;20020;-54
2022/01/31 09:07:55;;;;;;;;;;;15.90;35.10;;;;;;8305523;28;19931;-55
2022/01/31 09:11:57;;;;;;;;;;;15.90;35.10;;;;;;8321459;28;19921;-54
2022/01/31 09:15:57;;;;;;;;;;;15.90;35.20;;;;;;8319709;28;19921;-52
2022/01/31 09:19:58;;;;;;;;;;;15.90;35.20;;;;;;8308544;28;19948;-55
2022/01/31 09:23:58;;;;;;;;;;;15.90;35.10;;;;;;8329941;28;20469;-54
2022/01/31 09:27:59;;;;;;;;;;;16.00;35.20;;;;;;8320997;28;19928;-53
2022/01/31 09:32:02;;;;;;;;;;;15.90;35.20;;;;;;8317652;28;19964;-56
2022/01/31 09:36:03;;;;;;;;;;;15.90;35.10;;;;;;8316524;28;20410;-55
2022/01/31 09:40:04;;;;;;;;;;;16.00;35.20;;;;;;8329069;28;19964;-55
2022/01/31 09:52:09;;;;;;;;;;;16.00;35.30;;;;;;8332630;28;19928;-54
2022/01/31 09:56:11;;;;;;;;;;;16.00;35.30;;;;;;8335926;28;20011;-54
2022/01/31 10:00:12;;;;;;;;;;;16.00;35.30;;;;;;8336033;28;20282;-56
2022/01/31 10:04:17;;;;;;;;;;;16.00;35.30;;;;;;8331651;28;19929;-57
2022/01/31 10:08:18;;;;;;;;;;;16.00;35.30;;;;;;8342774;28;19995;-51
2022/01/31 10:16:31;;;;;;;;;;;16.00;35.40;;;;;;8314768;28;20311;-54
2022/01/31 10:20:32;;;;;;;;;;;16.00;35.40;;;;;;8294342;28;19913;-53
2022/01/31 10:24:33;;;;;;;;;;;16.00;35.40;;;;;;8284756;28;19937;-52
2022/01/31 10:28:38;;;;;;;;;;;16.00;35.40;;;;;;8301988;28;19936;-51
2022/01/31 10:32:40;;;;;;;;;;;15.90;35.40;;;;;;8301998;28;19937;-54
2022/01/31 10:36:42;;;;;;;;;;;15.90;35.40;;;;;;8281570;28;19921;-54
2022/01/31 10:53:42;;;;;;;;;;;16.00;35.50;;;;;;8306863;28;19949;-55
2022/01/31 10:57:42;;;;;;;;;;;16.00;35.50;;;;;;8300875;28;19940;-54
2022/01/31 11:01:46;;;;;;;;;;;16.00;35.50;;;;;;8300000;28;19925;-53
2022/01/31 11:05:49;;;;;;;;;;;16.00;35.40;;;;;;8300716;28;19925;-53
2022/01/31 11:09:50;;;;;;;;;;;16.00;35.40;;;;;;8300073;28;19926;-54
2022/01/31 11:13:51;;;;;;;;;;;16.10;35.40;;;;;;8300616;28;20028;-53
2022/01/31 11:17:56;;;;;;;;;;;16.10;35.40;;;;;;8300656;28;20291;-54
2022/01/31 11:22:00;;;;;;;;;;;16.10;35.50;;;;;;8300224;28;19937;-54
2022/01/31 11:26:01;;;;;;;;;;;16.10;35.50;;;;;;8300496;28;19917;-54
2022/01/31 11:30:02;;;;;;;;;;;16.10;35.50;;;;;;8300362;28;20019;-54
2022/01/31 11:34:04;;;;;;;;;;;16.10;35.50;;;;;;8299926;28;19914;-55
2022/01/31 11:38:05;;;;;;;;;;;16.10;35.50;;;;;;8300226;28;20004;-55
2022/01/31 11:42:06;;;;;;;;;;;16.10;35.50;;;;;;8300204;28;19928;-56
2022/01/31 11:46:07;;;;;;;;;;;16.10;35.50;;;;;;8299584;28;20294;-55
2022/01/31 11:50:08;;;;;;;;;;;16.10;35.50;;;;;;8299661;28;19932;-55
2022/01/31 11:54:09;;;;;;;;;;;16.10;35.60;;;;;;8299968;28;19913;-53
2022/01/31 11:58:14;;;;;;;;;;;16.10;35.50;;;;;;8298946;28;19918;-53
2022/01/31 12:02:15;;;;;;;;;;;16.10;35.50;;;;;;8306793;28;20008;-55
2022/01/31 12:06:19;;;;;;;;;;;16.10;35.50;;;;;;8299479;28;19945;-51
2022/01/31 12:10:22;;;;;;;;;;;16.10;36.00;;;;;;8298496;28;19935;-54
2022/01/31 12:14:26;;;;;;;;;;;16.10;35.50;;;;;;8299253;28;20359;-54
2022/01/31 12:22:40;;;;;;;;;;;16.10;35.50;;;;;;8298436;28;19917;-53
2022/01/31 12:26:47;;;;;;;;;;;16.10;35.50;;;;;;8298716;28;19917;-53
2022/01/31 12:30:47;;;;;;;;;;;16.10;35.50;;;;;;8298649;28;19926;-52
2022/01/31 12:34:58;;;;;;;;;;;16.10;35.50;;;;;;8298276;28;20385;-51
2022/01/31 12:38:59;;;;;;;;;;;16.10;35.50;;;;;;8298570;28;19917;-52
2022/01/31 12:47:15;;;;;;;;;;;16.10;35.50;;;;;;8298172;28;19952;-55
2022/01/31 12:51:15;;;;;;;;;;;16.10;35.50;;;;;;8280826;28;19917;-55
2022/01/31 12:55:16;;;;;;;;;;;16.10;35.50;;;;;;8297567;28;19921;-54
2022/01/31 12:59:17;;;;;;;;;;;16.10;35.50;;;;;;8298197;28;19917;-53
2022/01/31 13:03:30;;;;;;;;;;;16.10;35.50;;;;;;8297741;28;19921;-54
2022/01/31 13:07:31;;;;;;;;;;;16.20;35.60;;;;;;8279633;28;19953;-54
2022/01/31 13:11:32;;;;;;;;;;;16.20;35.60;;;;;;8297692;28;19972;-53
2022/01/31 13:15:33;;;;;;;;;;;16.20;35.50;;;;;;8294503;28;20004;-55
2022/01/31 13:19:35;;;;;;;;;;;16.20;35.50;;;;;;8297187;28;20385;-55
2022/01/31 13:23:37;;;;;;;;;;;16.20;35.50;;;;;;8297273;28;19957;-55
2022/01/31 13:27:42;;;;;;;;;;;16.20;35.50;;;;;;8296789;28;20008;-54
2022/01/31 13:31:44;;;;;;;;;;;16.20;35.50;;;;;;8296716;28;20272;-53
2022/01/31 13:35:46;;;;;;;;;;;16.20;35.40;;;;;;8297512;28;19917;-55
2022/01/31 13:39:54;;;;;;;;;;;16.20;35.50;;;;;;8297316;28;19917;-54
2022/01/31 13:44:00;;;;;;;;;;;16.20;35.50;;;;;;8296269;28;19925;-51
2022/01/31 13:48:27;;;;;;;;;;;16.20;35.40;;;;;;8302037;28;19926;-52
2022/01/31 13:52:33;;;;;;;;;;;16.20;35.40;;;;;;8296462;28;19921;-52
2022/01/31 13:56:33;;;;;;;;;;;16.20;35.40;;;;;;8296947;28;20264;-51
2022/01/31 14:00:35;;;;;;;;;;;16.20;35.40;;;;;;8296755;28;19941;-56
2022/01/31 14:04:37;;;;;;;;;;;16.20;35.40;;;;;;8295926;28;19956;-55
2022/01/31 14:08:45;;;;;;;;;;;16.20;35.40;;;;;;8296817;28;19925;-51
2022/01/31 14:12:45;;;;;;;;;;;16.20;35.40;;;;;;8296440;28;19994;-52
2022/01/31 14:16:46;;;;;;;;;;;16.20;35.40;;;;;;8295970;28;20445;-50
2022/01/31 14:20:50;;;;;;;;;;;16.20;35.40;;;;;;8296271;28;19918;-51
2022/01/31 14:24:53;;;;;;;;;;;16.20;35.40;;;;;;8296455;28;19922;-51
2022/01/31 14:28:53;;;;;;;;;;;16.20;35.40;;;;;;8295552;28;19926;-54
2022/01/31 14:33:05;;;;;;;;;;;16.20;35.40;;;;;;8296196;28;19917;-52
2022/01/31 14:37:07;;;;;;;;;;;16.20;35.30;;;;;;8297322;28;19913;-54
2022/01/31 14:41:16;;;;;;;;;;;16.20;35.30;;;;;;8302110;28;20396;-52
2022/01/31 14:49:37;;;;;;;;;;;16.30;35.40;;;;;;8301926;28;20452;-52
2022/01/31 14:53:38;;;;;;;;;;;16.20;35.30;;;;;;8301485;28;19921;-55
2022/01/31 14:57:39;;;;;;;;;;;16.20;35.30;;;;;;8301174;28;20406;-52
2022/01/31 15:01:39;;;;;;;;;;;16.20;35.30;;;;;;8300766;28;19936;-53
2022/01/31 15:05:40;;;;;;;;;;;16.30;35.40;;;;;;8301632;28;19929;-53
2022/01/31 15:09:40;;;;;;;;;;;16.20;35.40;;;;;;8300966;28;19968;-53
2022/01/31 15:13:42;;;;;;;;;;;16.30;35.40;;;;;;8299498;28;19917;-53
2022/01/31 15:17:47;;;;;;;;;;;16.30;35.40;;;;;;8300598;28;19913;-54
2022/01/31 15:21:47;;;;;;;;;;;16.20;35.30;;;;;;8300278;28;19917;-53
2022/01/31 15:25:48;;;;;;;;;;;16.30;35.40;;;;;;8300224;28;19941;-54
2022/01/31 15:29:48;;;;;;;;;;;16.30;35.40;;;;;;8300456;28;19937;-54
2022/01/31 15:33:49;;;;;;;;;;;16.20;35.40;;;;;;8300105;28;19968;-53
2022/01/31 15:37:50;;;;;;;;;;;16.30;35.40;;;;;;8299638;28;19924;-53
2022/01/31 15:41:55;;;;;;;;;;;16.30;35.40;;;;;;8300175;28;20414;-54
2022/01/31 15:45:56;;;;;;;;;;;16.20;35.30;;;;;;8301889;28;20354;-53
2022/01/31 15:49:56;;;;;;;;;;;16.30;35.40;;;;;;8299132;28;19936;-53
2022/01/31 15:53:57;;;;;;;;;;;16.20;35.30;;;;;;8299575;28;20450;-55
2022/01/31 15:58:02;;;;;;;;;;;16.30;35.40;;;;;;8298917;28;19953;-54
2022/01/31 16:02:04;;;;;;;;;;;16.20;35.30;;;;;;8307013;28;19913;-54
2022/01/31 16:06:05;;;;;;;;;;;16.30;35.40;;;;;;8299224;28;19928;-55
2022/01/31 16:10:06;;;;;;;;;;;16.20;35.30;;;;;;8298740;28;20374;-56
2022/01/31 16:14:12;;;;;;;;;;;16.20;35.30;;;;;;8298839;28;19935;-54
2022/01/31 16:18:14;;;;;;;;;;;16.30;35.40;;;;;;8303510;28;19914;-55
2022/01/31 16:22:14;;;;;;;;;;;16.20;35.30;;;;;;8298271;28;19942;-53
2022/01/31 16:26:15;;;;;;;;;;;16.20;35.40;;;;;;8298943;28;19920;-55
2022/01/31 16:30:16;;;;;;;;;;;16.20;35.40;;;;;;8298283;28;19932;-52
2022/01/31 16:34:16;;;;;;;;;;;16.20;35.30;;;;;;8297998;28;19917;-51
2022/01/31 16:38:18;;;;;;;;;;;16.20;35.40;;;;;;8298270;28;19925;-54
2022/01/31 16:42:19;;;;;;;;;;;16.20;35.30;;;;;;8298499;28;19920;-55
2022/01/31 16:46:19;;;;;;;;;;;16.20;35.40;;;;;;8297892;28;19921;-53
2022/01/31 16:50:21;;;;;;;;;;;16.20;35.40;;;;;;8297748;28;20012;-53
2022/01/31 16:54:22;;;;;;;;;;;16.20;35.30;;;;;;8292886;28;20338;-54
2022/01/31 16:58:22;;;;;;;;;;;16.20;35.30;;;;;;8296988;28;19922;-54
2022/01/31 17:02:23;;;;;;;;;;;16.20;35.30;;;;;;8296685;28;19913;-54
2022/01/31 17:06:23;;;;;;;;;;;16.20;35.30;;;;;;8297866;28;19921;-52
2022/01/31 17:10:24;;;;;;;;;;;16.20;35.30;;;;;;8295882;28;20031;-54
2022/01/31 17:14:24;;;;;;;;;;;16.20;35.30;;;;;;8297412;28;19917;-55
2022/01/31 17:18:24;;;;;;;;;;;16.20;35.30;;;;;;8297342;28;20001;-52
2022/01/31 17:22:25;;;;;;;;;;;16.20;35.40;;;;;;8297024;28;19917;-51
2022/01/31 17:26:25;;;;;;;;;;;16.20;35.90;;;;;;8297397;28;19973;-53
2022/01/31 17:30:26;;;;;;;;;;;16.20;35.30;;;;;;8296857;28;19930;-54
2022/01/31 17:34:26;;;;;;;;;;;16.20;35.30;;;;;;8296488;28;20055;-52
2022/01/31 17:38:27;;;;;;;;;;;16.20;35.30;;;;;;8296957;28;19917;-53
2022/01/31 17:42:30;;;;;;;;;;;16.20;35.30;;;;;;8296850;28;19925;-55
2022/01/31 17:46:31;;;;;;;;;;;16.20;35.30;;;;;;8296289;28;19914;-53
2022/01/31 17:50:32;;;;;;;;;;;16.20;35.30;;;;;;8296817;28;20012;-54
2022/01/31 17:54:33;;;;;;;;;;;16.20;35.30;;;;;;8297048;28;19918;-54
2022/01/31 17:58:33;;;;;;;;;;;16.20;35.30;;;;;;8296262;28;19964;-55
2022/01/31 18:02:34;;;;;;;;;;;16.20;35.30;;;;;;8297110;28;19925;-54
2022/01/31 18:06:34;;;;;;;;;;;16.20;35.30;;;;;;8296879;28;19922;-54
2022/01/31 18:10:35;;;;;;;;;;;16.20;35.40;;;;;;8295876;28;19979;-54
2022/01/31 18:14:36;;;;;;;;;;;16.20;35.40;;;;;;8301611;28;19928;-55
2022/01/31 18:18:37;;;;;;;;;;;16.20;35.40;;;;;;8302528;28;19924;-52
2022/01/31 18:22:38;;;;;;;;;;;16.20;35.50;;;;;;8300430;28;19924;-56
2022/01/31 18:26:39;;;;;;;;;;;16.20;35.40;;;;;;8302867;28;19996;-54
2022/01/31 18:30:40;;;;;;;;;;;16.20;35.40;;;;;;8301966;28;19925;-54
2022/01/31 18:34:41;;;;;;;;;;;16.20;35.50;;;;;;8301560;28;19918;-53
2022/01/31 18:38:47;;;;;;;;;;;16.20;35.50;;;;;;8302178;28;19949;-50
2022/01/31 18:42:48;;;;;;;;;;;16.20;35.50;;;;;;8305111;28;19917;-52
2022/01/31 18:46:49;;;;;;;;;;;16.20;35.50;;;;;;8301738;28;19945;-52
2022/01/31 18:50:50;;;;;;;;;;;16.20;35.50;;;;;;8301732;28;19932;-52
2022/01/31 18:54:50;;;;;;;;;;;16.20;35.50;;;;;;8301326;28;19940;-54
2022/01/31 18:58:51;;;;;;;;;;;16.20;35.50;;;;;;8300894;28;19917;-53
2022/01/31 19:02:53;;;;;;;;;;;16.20;35.50;;;;;;8301134;28;20251;-55
2022/01/31 19:06:53;;;;;;;;;;;16.20;35.60;;;;;;8301447;28;19913;-53
2022/01/31 19:11:05;;;;;;;;;;;16.20;35.60;;;;;;8300904;28;20302;-54
2022/01/31 19:19:09;;;;;;;;;;;16.10;35.60;;;;;;8300445;28;19987;-53
2022/01/31 19:23:10;;;;;;;;;;;16.20;35.60;;;;;;8299702;28;19917;-53
2022/01/31 19:27:10;;;;;;;;;;;16.20;35.60;;;;;;8300843;28;19921;-53
2022/01/31 19:31:11;;;;;;;;;;;16.10;35.60;;;;;;8299960;28;19921;-51
2022/01/31 19:35:12;;;;;;;;;;;16.10;35.60;;;;;;8292270;28;19956;-54
2022/01/31 19:47:14;;;;;;;;;;;16.10;35.70;;;;;;8300312;28;20004;-55
2022/01/31 19:51:17;;;;;;;;;;;16.20;35.70;;;;;;8299916;28;19928;-53
2022/01/31 19:55:18;;;;;;;;;;;16.10;35.70;;;;;;8299125;28;19921;-54
2022/01/31 19:59:19;;;;;;;;;;;16.10;35.70;;;;;;8300097;28;20087;-53
2022/01/31 20:03:19;;;;;;;;;;;16.10;35.70;;;;;;8299573;28;19921;-54
2022/01/31 20:07:22;;;;;;;;;;;16.20;35.70;;;;;;8299140;28;20380;-53
2022/01/31 20:11:25;;;;;;;;;;;16.20;35.70;;;;;;8298754;28;19992;-55
2022/01/31 20:15:26;;;;;;;;;;;16.10;35.70;;;;;;8299127;28;19921;-54
2022/01/31 20:19:26;;;;;;;;;;;16.10;35.70;;;;;;8298589;28;19921;-53
2022/01/31 20:23:29;;;;;;;;;;;16.10;35.70;;;;;;8298774;28;19957;-54
2022/01/31 20:27:30;;;;;;;;;;;16.10;35.70;;;;;;8299390;28;19917;-53
2022/01/31 20:31:30;;;;;;;;;;;16.10;35.70;;;;;;8298265;28;19924;-53
2022/01/31 20:35:34;;;;;;;;;;;16.20;35.70;;;;;;8298512;28;20016;-54
2022/01/31 20:44:02;;;;;;;;;;;16.10;35.70;;;;;;8300102;28;19992;-53
2022/01/31 20:48:03;;;;;;;;;;;16.10;35.70;;;;;;8331201;28;20305;-55
2022/01/31 20:52:04;;;;;;;;;;;16.10;35.70;;;;;;8330378;28;19917;-53
2022/01/31 20:56:05;;;;;;;;;;;16.10;35.70;;;;;;8330775;28;20274;-54
2022/01/31 21:00:05;;;;;;;;;;;16.10;35.70;;;;;;8330577;28;19923;-54
2022/01/31 21:04:06;;;;;;;;;;;16.10;35.70;;;;;;8330396;28;19921;-53
2022/01/31 21:08:07;;;;;;;;;;;16.10;35.70;;;;;;8330588;28;19921;-53
2022/01/31 21:12:09;;;;;;;;;;;16.10;35.70;;;;;;8330561;28;20432;-54
2022/01/31 21:16:11;;;;;;;;;;;16.10;35.70;;;;;;8329838;28;20016;-54
2022/01/31 21:20:13;;;;;;;;;;;16.10;35.70;;;;;;8312457;28;19917;-52
2022/01/31 21:24:13;;;;;;;;;;;16.10;35.70;;;;;;8329986;28;20003;-55
2022/01/31 21:28:15;;;;;;;;;;;16.10;35.80;;;;;;8329692;28;20254;-52
2022/01/31 21:32:16;;;;;;;;;;;16.10;35.70;;;;;;8330403;28;20393;-53
2022/01/31 21:36:17;;;;;;;;;;;16.10;35.70;;;;;;8329845;28;19921;-52
2022/01/31 21:40:18;;;;;;;;;;;16.10;35.80;;;;;;8329445;28;20361;-52
2022/01/31 21:44:19;;;;;;;;;;;16.10;35.70;;;;;;8329699;28;19917;-55
2022/01/31 21:48:20;;;;;;;;;;;16.10;35.80;;;;;;8333611;28;20390;-55
2022/01/31 21:52:20;;;;;;;;;;;16.10;35.70;;;;;;8335911;28;20337;-53
2022/01/31 21:56:21;;;;;;;;;;;16.10;35.70;;;;;;8336359;28;19921;-54
2022/01/31 22:00:22;;;;;;;;;;;16.00;35.70;;;;;;8336142;28;20327;-54
2022/01/31 22:04:22;;;;;;;;;;;16.00;35.70;;;;;;8335616;28;20005;-53
2022/01/31 22:08:25;;;;;;;;;;;16.00;35.70;;;;;;8336404;28;19952;-52
2022/01/31 22:12:26;;;;;;;;;;;16.00;35.70;;;;;;8335536;28;20382;-51
2022/01/31 22:16:28;;;;;;;;;;;16.00;35.70;;;;;;8334936;28;20012;-53
2022/01/31 22:20:28;;;;;;;;;;;16.00;35.70;;;;;;8335591;28;19917;-54
2022/01/31 22:24:29;;;;;;;;;;;16.00;35.70;;;;;;8335415;28;19924;-51
2022/01/31 22:28:29;;;;;;;;;;;16.00;35.70;;;;;;8334865;28;19971;-53
2022/01/31 22:32:35;;;;;;;;;;;16.00;35.70;;;;;;8335403;28;20393;-55
2022/01/31 22:36:42;;;;;;;;;;;16.00;35.70;;;;;;8335137;28;19927;-54
2022/01/31 22:40:42;;;;;;;;;;;16.00;35.70;;;;;;8334274;28;19924;-56
2022/01/31 22:44:43;;;;;;;;;;;16.00;35.70;;;;;;8334790;28;19913;-52
2022/01/31 22:48:46;;;;;;;;;;;16.00;35.70;;;;;;8334911;28;19945;-53
2022/01/31 22:52:47;;;;;;;;;;;16.00;35.70;;;;;;8334095;28;19924;-53
2022/01/31 22:56:47;;;;;;;;;;;16.00;35.70;;;;;;8334289;28;19925;-57
2022/01/31 23:00:48;;;;;;;;;;;16.00;35.70;;;;;;8333497;28;19913;-53
2022/01/31 23:04:48;;;;;;;;;;;16.00;35.70;;;;;;8334096;28;20441;-53
2022/01/31 23:08:49;;;;;;;;;;;16.00;35.70;;;;;;8333650;28;19921;-53
2022/01/31 23:12:51;;;;;;;;;;;16.00;35.70;;;;;;8333864;28;19963;-54
2022/01/31 23:16:57;;;;;;;;;;;16.00;35.60;;;;;;8333326;28;19917;-55
2022/01/31 23:21:15;;;;;;;;;;;15.90;35.60;;;;;;8335454;28;20394;-53
